Time;durP1;ratioP1;P1;durP2;ratioP2;P2;SDS_P1;SDS_P2;PMS_P1;PMS_P2;Temp;Humidity;BMP_temperature;BMP_pressure;BME280_temperature;BME280_humidity;BME280_pressure;Samples;Min_cycle;Max_cycle;Signal;HPM_P1;HPM_P2
2022/04/15 00:00:00;;;;;;;20.42;10.15;;;6.80;99.90;;;;;;5072713;28;20114;-81
2022/04/15 00:02:25;;;;;;;18.27;10.00;;;6.80;99.90;;;;;;5072833;28;20051;-81
2022/04/15 00:04:51;;;;;;;16.48;10.32;;;6.90;99.90;;;;;;5071289;28;20045;-81
2022/04/15 00:07:17;;;;;;;18.00;9.60;;;6.90;99.90;;;;;;5072813;28;20104;-81
2022/04/15 00:09:43;;;;;;;16.15;10.55;;;6.90;99.90;;;;;;5072332;28;20109;-81
2022/04/15 00:12:10;;;;;;;19.88;10.45;;;7.10;99.90;;;;;;5071639;28;20445;-80
2022/04/15 00:14:36;;;;;;;19.25;10.50;;;7.10;99.90;;;;;;5070575;28;20492;-79
2022/04/15 00:17:02;;;;;;;14.57;10.40;;;7.20;99.90;;;;;;5072564;28;20044;-80
2022/04/15 00:19:27;;;;;;;13.27;9.95;;;7.20;99.90;;;;;;5071115;28;20049;-80
2022/04/15 00:21:53;;;;;;;17.00;9.90;;;7.30;99.90;;;;;;5072164;28;20088;-79
2022/04/15 00:24:19;;;;;;;17.15;10.48;;;7.40;99.90;;;;;;5072859;28;20115;-79
2022/04/15 00:26:45;;;;;;;18.10;9.88;;;7.40;99.90;;;;;;5080912;28;20101;-78
2022/04/15 00:29:10;;;;;;;19.55;10.23;;;7.50;99.90;;;;;;5080088;28;20056;-79
2022/04/15 00:31:36;;;;;;;17.52;10.48;;;8.10;99.90;;;;;;5073565;28;20044;-79
2022/04/15 00:34:02;;;;;;;17.55;9.45;;;7.60;99.90;;;;;;5072996;28;20373;-79
2022/04/15 00:36:28;;;;;;;15.13;9.77;;;7.60;99.90;;;;;;5072844;28;20127;-79
2022/04/15 00:38:54;;;;;;;16.65;9.70;;;7.60;99.90;;;;;;5054080;28;20148;-80
2022/04/15 00:41:19;;;;;;;16.85;10.13;;;7.60;99.90;;;;;;5072314;28;20048;-80
2022/04/15 00:43:45;;;;;;;19.42;10.25;;;7.60;99.90;;;;;;5054124;28;20087;-79
2022/04/15 00:46:11;;;;;;;21.48;10.52;;;7.60;99.90;;;;;;5072538;28;20102;-78
2022/04/15 00:48:39;;;;;;;16.80;9.93;;;7.70;99.90;;;;;;5071308;28;20079;-80
2022/04/15 00:51:05;;;;;;;13.43;9.35;;;8.20;99.90;;;;;;5072378;28;20055;-80
2022/04/15 00:53:32;;;;;;;18.33;10.43;;;7.70;99.90;;;;;;5070942;28;20040;-79
2022/04/15 00:55:59;;;;;;;21.48;11.15;;;7.70;99.90;;;;;;5070360;28;20053;-79
2022/04/15 00:58:25;;;;;;;17.40;9.52;;;7.70;99.90;;;;;;5072345;28;20132;-80
2022/04/15 01:00:53;;;;;;;15.00;9.93;;;7.80;99.90;;;;;;5054014;28;20091;-79
2022/04/15 01:03:21;;;;;;;16.67;9.85;;;7.80;99.90;;;;;;5054198;28;20538;-79
2022/04/15 01:05:47;;;;;;;16.10;9.57;;;7.80;99.90;;;;;;5053464;28;20061;-79
2022/04/15 01:08:13;;;;;;;16.17;10.25;;;7.80;99.90;;;;;;5070625;28;20087;-80
2022/04/15 01:10:38;;;;;;;15.10;10.00;;;7.80;99.90;;;;;;5070349;28;20465;-80
2022/04/15 01:13:07;;;;;;;15.20;9.95;;;7.80;99.90;;;;;;5069989;28;20099;-80
2022/04/15 01:15:33;;;;;;;16.45;9.70;;;7.80;99.90;;;;;;5070583;28;20548;-80
2022/04/15 01:17:58;;;;;;;15.70;10.18;;;7.80;99.90;;;;;;5052721;28;20135;-79
2022/04/15 01:20:24;;;;;;;20.92;10.60;;;7.80;99.90;;;;;;5070296;28;20109;-79
2022/04/15 01:23:08;;;;;;;18.13;10.27;;;7.80;99.90;;;;;;5071494;28;20499;-80
2022/04/15 01:25:34;;;;;;;15.95;9.45;;;7.90;99.90;;;;;;5071557;28;20067;-80
2022/04/15 01:28:00;;;;;;;15.80;9.82;;;7.90;99.90;;;;;;5052908;28;20048;-79
2022/04/15 01:30:26;;;;;;;16.88;10.02;;;7.90;99.90;;;;;;5070046;28;20055;-79
2022/04/15 01:32:51;;;;;;;15.93;10.23;;;8.20;99.90;;;;;;5036539;28;20052;-79
2022/04/15 01:35:17;;;;;;;14.13;9.93;;;7.90;99.90;;;;;;5069806;28;20048;-79
2022/04/15 01:37:44;;;;;;;16.27;9.57;;;7.90;99.90;;;;;;5069776;28;20068;-78
2022/04/15 01:40:10;;;;;;;18.00;10.07;;;8.00;99.90;;;;;;5070030;28;20041;-79
2022/04/15 01:42:37;;;;;;;19.17;10.27;;;8.00;99.90;;;;;;5070943;28;20048;-79
2022/04/15 01:45:03;;;;;;;14.88;10.35;;;8.00;99.90;;;;;;5069359;28;20054;-79
2022/04/15 01:47:29;;;;;;;17.80;10.95;;;8.00;99.90;;;;;;5069346;28;20483;-79
2022/04/15 01:49:55;;;;;;;12.82;9.10;;;8.00;99.90;;;;;;5069202;28;20080;-79
2022/04/15 01:52:20;;;;;;;19.05;10.77;;;8.00;99.90;;;;;;5053131;28;20074;-78
2022/04/15 01:54:46;;;;;;;18.08;10.77;;;8.00;99.90;;;;;;5036215;28;20127;-79
2022/04/15 01:57:12;;;;;;;20.15;10.73;;;8.00;99.90;;;;;;5069526;28;20090;-80
2022/04/15 01:59:39;;;;;;;13.48;9.52;;;8.00;99.90;;;;;;5069510;28;20054;-80
2022/04/15 02:02:05;;;;;;;15.77;9.50;;;8.00;99.90;;;;;;5070039;28;20539;-80
2022/04/15 02:04:30;;;;;;;12.07;9.45;;;8.00;99.90;;;;;;5070485;28;20033;-79
2022/04/15 02:06:56;;;;;;;17.15;9.88;;;8.00;99.90;;;;;;5070264;28;20182;-80
2022/04/15 02:09:22;;;;;;;15.02;9.30;;;8.10;99.90;;;;;;5052471;28;20423;-80
2022/04/15 02:11:48;;;;;;;15.80;9.10;;;8.10;99.90;;;;;;5035385;28;20058;-80
2022/04/15 02:14:14;;;;;;;15.48;9.45;;;8.20;99.90;;;;;;5070359;28;20080;-80
2022/04/15 02:16:39;;;;;;;16.52;9.65;;;8.10;99.90;;;;;;5052650;28;20048;-80
2022/04/15 02:19:05;;;;;;;16.30;8.90;;;8.10;99.90;;;;;;5070220;28;20484;-80
2022/04/15 02:21:31;;;;;;;13.73;9.18;;;8.20;99.90;;;;;;5052537;28;20496;-81
2022/04/15 02:23:57;;;;;;;13.68;8.13;;;8.20;99.90;;;;;;5068073;28;20143;-80
2022/04/15 02:26:23;;;;;;;16.73;8.75;;;8.20;99.90;;;;;;5068716;28;20552;-79
2022/04/15 02:28:49;;;;;;;15.27;8.20;;;8.20;99.90;;;;;;5069637;28;20047;-78
2022/04/15 02:31:14;;;;;;;15.02;9.30;;;8.30;99.90;;;;;;5069983;28;20049;-78
2022/04/15 02:33:40;;;;;;;12.07;8.88;;;8.20;99.90;;;;;;5070976;28;20040;-79
2022/04/15 02:36:06;;;;;;;16.02;8.98;;;8.20;99.90;;;;;;5070391;28;20052;-81
2022/04/15 02:38:32;;;;;;;13.93;8.65;;;8.20;99.90;;;;;;5069897;28;20052;-81
2022/04/15 02:40:58;;;;;;;12.98;9.32;;;8.20;99.90;;;;;;5052501;28;20037;-80
2022/04/15 02:43:31;;;;;;;12.93;9.73;;;8.20;99.90;;;;;;5052976;28;20477;-79
2022/04/15 02:46:05;;;;;;;14.82;9.77;;;8.20;99.90;;;;;;5070920;28;20133;-79
2022/04/15 02:48:30;;;;;;;16.40;9.27;;;8.20;99.90;;;;;;5077549;28;20044;-79
2022/04/15 02:50:56;;;;;;;18.58;9.15;;;8.20;99.90;;;;;;5077988;28;20169;-78
2022/04/15 02:53:22;;;;;;;12.32;9.02;;;8.20;99.90;;;;;;5072391;28;20048;-79
2022/04/15 02:55:48;;;;;;;11.68;8.65;;;8.20;99.90;;;;;;5053510;28;20392;-79
2022/04/15 02:58:13;;;;;;;11.25;7.55;;;8.30;99.90;;;;;;5070189;28;20056;-79
2022/04/15 03:00:39;;;;;;;10.63;7.70;;;8.30;99.90;;;;;;5069014;28;20472;-80
2022/04/15 03:03:05;;;;;;;13.35;6.50;;;8.30;99.90;;;;;;5069844;28;20500;-79
2022/04/15 03:05:30;;;;;;;10.43;7.05;;;8.40;99.90;;;;;;5069046;28;20435;-78
2022/04/15 03:07:57;;;;;;;11.07;6.75;;;8.50;99.90;;;;;;5035417;28;20439;-78
2022/04/15 03:10:22;;;;;;;7.93;6.30;;;8.40;99.90;;;;;;5069255;28;20064;-78
2022/04/15 03:12:48;;;;;;;8.45;5.50;;;8.40;99.90;;;;;;5070279;28;20052;-79
2022/04/15 03:15:14;;;;;;;10.13;5.50;;;8.50;99.90;;;;;;5019152;28;20044;-79
2022/04/15 03:17:40;;;;;;;8.85;6.30;;;8.50;99.90;;;;;;5069970;28;20040;-79
2022/04/15 03:20:06;;;;;;;8.07;5.78;;;8.50;99.90;;;;;;5068359;28;20082;-79
2022/04/15 03:22:36;;;;;;;11.00;6.68;;;8.50;99.90;;;;;;5070324;28;20044;-79
2022/04/15 03:25:02;;;;;;;9.30;5.28;;;8.50;99.90;;;;;;5071742;28;20158;-79
2022/04/15 03:27:27;;;;;;;9.95;6.10;;;8.50;99.90;;;;;;5056152;28;20055;-79
2022/04/15 03:29:53;;;;;;;8.75;5.97;;;8.60;99.90;;;;;;5073701;28;20041;-78
2022/04/15 03:32:19;;;;;;;9.32;6.10;;;8.70;99.90;;;;;;5071927;28;20059;-80
2022/04/15 03:34:45;;;;;;;8.70;6.00;;;8.70;99.90;;;;;;5073549;28;20127;-80
2022/04/15 03:37:10;;;;;;;11.73;8.00;;;9.30;99.90;;;;;;5071888;28;20158;-80
2022/04/15 03:39:36;;;;;;;15.35;9.32;;;8.70;99.90;;;;;;5073482;28;20127;-80
2022/04/15 03:42:03;;;;;;;16.42;11.25;;;8.70;99.90;;;;;;5055164;28;20052;-79
2022/04/15 03:44:28;;;;;;;19.63;12.45;;;8.60;99.90;;;;;;5072395;28;20048;-80
2022/04/15 03:46:54;;;;;;;18.83;12.95;;;8.80;99.90;;;;;;5072144;28;20048;-80
2022/04/15 03:49:20;;;;;;;19.23;13.63;;;8.80;99.90;;;;;;5038599;28;20181;-80
2022/04/15 03:51:45;;;;;;;20.90;14.00;;;8.90;99.90;;;;;;5072466;28;20098;-79
2022/04/15 03:54:11;;;;;;;17.80;13.18;;;8.60;99.90;;;;;;5072918;28;20036;-80
2022/04/15 03:56:37;;;;;;;19.15;13.63;;;8.60;99.90;;;;;;5073104;28;20056;-80
2022/04/15 03:59:03;;;;;;;18.08;12.98;;;8.50;99.90;;;;;;5071623;28;20063;-80
2022/04/15 04:01:30;;;;;;;15.93;12.10;;;8.40;99.90;;;;;;5055343;28;20062;-80
2022/04/15 04:03:56;;;;;;;13.70;11.13;;;8.50;99.90;;;;;;5071817;28;20040;-80
2022/04/15 04:06:21;;;;;;;13.48;10.05;;;8.60;99.90;;;;;;5070581;28;20256;-80
2022/04/15 04:08:50;;;;;;;11.98;9.68;;;8.80;99.90;;;;;;5072199;28;20070;-80
2022/04/15 04:11:16;;;;;;;11.23;9.13;;;8.80;99.90;;;;;;5073065;28;20048;-80
2022/04/15 04:13:42;;;;;;;11.95;9.40;;;8.50;99.90;;;;;;5073828;28;20041;-80
2022/04/15 04:16:08;;;;;;;9.13;6.85;;;8.50;99.90;;;;;;5073175;28;20102;-80
2022/04/15 04:18:34;;;;;;;12.20;9.70;;;8.40;99.90;;;;;;5072877;28;20496;-79
2022/04/15 04:20:59;;;;;;;14.38;9.90;;;8.50;99.90;;;;;;5072288;28;20048;-79
2022/04/15 04:23:25;;;;;;;14.52;10.77;;;8.50;99.90;;;;;;5073075;28;20045;-79
2022/04/15 04:25:51;;;;;;;10.98;9.15;;;8.40;99.90;;;;;;5072787;28;20534;-79
2022/04/15 04:28:16;;;;;;;9.95;7.97;;;8.20;99.90;;;;;;5072541;28;20052;-79
2022/04/15 04:30:42;;;;;;;10.05;8.07;;;8.50;99.90;;;;;;5073110;28;20135;-79
2022/04/15 04:33:08;;;;;;;9.60;7.40;;;8.40;99.90;;;;;;5054343;28;20139;-78
2022/04/15 04:35:34;;;;;;;8.93;6.70;;;8.50;99.90;;;;;;5072264;28;20048;-78
2022/04/15 04:37:59;;;;;;;8.65;7.75;;;8.40;99.90;;;;;;5054667;28;20053;-78
2022/04/15 04:40:25;;;;;;;9.27;8.38;;;8.40;99.90;;;;;;5071966;28;20040;-78
2022/04/15 04:42:51;;;;;;;10.05;8.48;;;8.00;99.90;;;;;;5071120;28;20401;-79
2022/04/15 04:45:17;;;;;;;9.52;8.50;;;8.50;99.90;;;;;;5036529;28;20044;-78
2022/04/15 04:47:44;;;;;;;11.23;8.50;;;8.50;99.90;;;;;;5070977;28;20057;-79
2022/04/15 04:50:10;;;;;;;11.70;9.18;;;8.40;99.90;;;;;;5070049;28;20048;-79
2022/04/15 04:52:36;;;;;;;12.15;10.07;;;8.10;99.90;;;;;;5070783;28;20045;-79
2022/04/15 04:55:03;;;;;;;9.43;6.75;;;8.20;99.90;;;;;;5070662;28;20045;-79
2022/04/15 04:57:28;;;;;;;10.85;8.50;;;8.30;99.90;;;;;;5069483;28;20067;-80
2022/04/15 04:59:56;;;;;;;11.85;8.00;;;8.30;99.90;;;;;;5070752;28;20045;-80
2022/04/15 05:02:22;;;;;;;10.45;8.27;;;8.30;99.90;;;;;;5071338;28;20059;-80
2022/04/15 05:04:47;;;;;;;12.02;8.15;;;8.30;99.90;;;;;;5070485;28;20044;-79
2022/04/15 05:07:14;;;;;;;9.25;8.23;;;8.30;99.90;;;;;;5053537;28;20044;-79
2022/04/15 05:09:42;;;;;;;9.02;8.00;;;8.60;99.90;;;;;;5072626;28;20052;-77
2022/04/15 05:12:10;;;;;;;11.48;8.30;;;8.90;99.90;;;;;;5088443;28;20098;-79
2022/04/15 05:14:36;;;;;;;7.75;6.95;;;8.10;99.90;;;;;;5072024;28;20476;-79
2022/04/15 05:17:02;;;;;;;11.35;7.85;;;8.10;99.90;;;;;;5070805;28;20052;-78
2022/04/15 05:19:27;;;;;;;8.63;7.57;;;8.30;99.90;;;;;;5070297;28;20049;-79
2022/04/15 05:21:53;;;;;;;10.02;7.45;;;8.20;99.90;;;;;;5070056;28;20049;-79
2022/04/15 05:24:19;;;;;;;5.72;5.13;;;8.40;99.90;;;;;;5069500;28;20064;-79
2022/04/15 05:26:45;;;;;;;9.30;6.90;;;8.50;99.90;;;;;;5053028;28;20052;-78
2022/04/15 05:29:11;;;;;;;5.72;4.95;;;8.40;99.90;;;;;;5069638;28;20075;-78
2022/04/15 05:31:37;;;;;;;9.25;6.68;;;8.60;99.90;;;;;;5070546;28;20467;-80
2022/04/15 05:34:03;;;;;;;6.05;5.13;;;8.50;99.90;;;;;;5070925;28;20053;-79
2022/04/15 05:36:29;;;;;;;8.82;6.88;;;8.30;99.90;;;;;;5068960;28;20127;-79
2022/04/15 05:38:54;;;;;;;11.60;7.35;;;8.80;99.90;;;;;;5069486;28;20123;-79
2022/04/15 05:41:20;;;;;;;9.15;7.20;;;8.20;99.90;;;;;;5052633;28;20080;-80
2022/04/15 05:43:46;;;;;;;10.85;8.10;;;8.20;99.90;;;;;;5069113;28;20037;-79
2022/04/15 05:46:12;;;;;;;10.50;8.60;;;8.10;99.90;;;;;;5076944;28;20048;-79
2022/04/15 05:48:38;;;;;;;11.07;9.07;;;8.10;99.90;;;;;;5068701;28;20051;-78
2022/04/15 05:51:04;;;;;;;10.82;8.70;;;7.90;99.90;;;;;;5069315;28;20040;-79
2022/04/15 05:53:30;;;;;;;10.18;9.18;;;7.90;99.90;;;;;;5069094;28;20051;-79
2022/04/15 05:55:56;;;;;;;10.27;8.68;;;7.90;99.90;;;;;;5069803;28;20045;-80
2022/04/15 05:58:22;;;;;;;9.45;8.45;;;7.90;99.90;;;;;;5070864;28;20131;-79
2022/04/15 06:00:48;;;;;;;11.05;8.20;;;7.90;99.90;;;;;;5053843;28;20127;-79
2022/04/15 06:03:13;;;;;;;11.32;8.73;;;7.80;99.90;;;;;;5069392;28;20036;-79
2022/04/15 06:05:39;;;;;;;9.52;8.57;;;7.80;99.90;;;;;;5070170;28;20052;-78
2022/04/15 06:08:05;;;;;;;12.95;8.93;;;8.00;99.90;;;;;;5070182;28;20545;-78
2022/04/15 06:10:31;;;;;;;10.88;7.63;;;8.10;99.90;;;;;;5070589;28;20400;-79
2022/04/15 06:13:00;;;;;;;9.55;7.72;;;8.40;99.90;;;;;;5069463;28;20056;-79
2022/04/15 06:15:31;;;;;;;8.88;8.00;;;8.30;99.90;;;;;;5070341;28;20049;-79
2022/04/15 06:18:00;;;;;;;10.43;8.93;;;8.10;99.90;;;;;;5071064;28;20436;-78
2022/04/15 06:20:27;;;;;;;9.63;8.60;;;8.00;99.90;;;;;;5068616;28;20124;-79
2022/04/15 06:22:52;;;;;;;10.85;8.55;;;8.00;99.90;;;;;;5068593;28;20504;-78
2022/04/15 06:25:18;;;;;;;12.18;9.13;;;7.90;99.90;;;;;;5070399;28;20083;-78
2022/04/15 06:27:44;;;;;;;11.27;9.63;;;8.20;99.90;;;;;;5068578;28;20490;-79
2022/04/15 06:30:10;;;;;;;12.63;9.30;;;8.20;99.90;;;;;;5070973;28;20055;-80
2022/04/15 06:32:35;;;;;;;14.50;9.88;;;8.00;99.90;;;;;;5070075;28;20113;-78
2022/04/15 06:35:02;;;;;;;12.50;10.15;;;8.10;99.90;;;;;;5068948;28;20083;-79
2022/04/15 06:37:27;;;;;;;14.90;9.82;;;8.10;99.90;;;;;;5070208;28;20040;-78
2022/04/15 06:39:53;;;;;;;14.93;10.65;;;8.00;99.90;;;;;;5068845;28;20044;-80
2022/04/15 06:42:27;;;;;;;15.40;10.48;;;8.00;99.90;;;;;;5070523;28;20068;-78
2022/04/15 06:44:53;;;;;;;14.23;10.60;;;8.00;99.90;;;;;;5068829;28;20127;-78
2022/04/15 06:47:18;;;;;;;13.13;10.30;;;8.00;99.90;;;;;;5069136;28;20128;-79
2022/04/15 06:49:47;;;;;;;16.58;11.65;;;8.10;99.90;;;;;;5069400;28;20373;-80
2022/04/15 06:52:13;;;;;;;14.02;11.38;;;8.10;99.90;;;;;;5070834;28;20048;-80
2022/04/15 06:54:39;;;;;;;20.35;11.60;;;8.10;99.90;;;;;;5068651;28;20099;-78
2022/04/15 06:57:05;;;;;;;15.25;11.20;;;8.70;99.90;;;;;;5071909;28;20080;-79
2022/04/15 06:59:30;;;;;;;16.90;11.77;;;8.20;99.90;;;;;;5074348;28;20044;-79
2022/04/15 07:01:58;;;;;;;19.02;11.48;;;8.20;99.90;;;;;;5074331;28;20091;-80
2022/04/15 07:04:24;;;;;;;16.33;11.80;;;8.30;99.90;;;;;;5074615;28;20036;-79
2022/04/15 07:06:50;;;;;;;20.13;11.52;;;8.30;99.90;;;;;;5056531;28;20044;-79
2022/04/15 07:09:16;;;;;;;17.10;11.75;;;8.40;99.90;;;;;;5074743;28;20127;-80
2022/04/15 07:11:42;;;;;;;19.15;12.52;;;8.40;99.90;;;;;;5073195;28;20591;-80
2022/04/15 07:14:07;;;;;;;18.00;11.98;;;8.40;99.90;;;;;;5056419;28;20127;-79
2022/04/15 07:16:36;;;;;;;18.42;12.52;;;8.80;99.90;;;;;;5056273;28;20036;-80
2022/04/15 07:19:04;;;;;;;21.83;14.13;;;8.70;99.90;;;;;;5074779;28;20055;-78
2022/04/15 07:21:40;;;;;;;24.20;14.63;;;8.80;99.90;;;;;;5056374;28;20109;-79
2022/04/15 07:24:06;;;;;;;23.92;15.18;;;8.80;99.90;;;;;;5055938;28;20056;-79
2022/04/15 07:26:32;;;;;;;30.02;15.95;;;8.80;99.90;;;;;;5073778;28;20155;-78
2022/04/15 07:28:58;;;;;;;22.38;15.82;;;8.80;99.90;;;;;;5073799;28;20556;-79
2022/04/15 07:31:24;;;;;;;23.92;16.27;;;9.00;99.90;;;;;;5076019;28;20094;-78
2022/04/15 07:33:50;;;;;;;24.95;15.13;;;9.00;99.90;;;;;;5073082;28;20051;-78
2022/04/15 07:39:00;;;;;;;22.40;14.18;;;9.20;99.90;;;;;;5073850;28;20051;-78
2022/04/15 07:41:26;;;;;;;23.88;15.80;;;9.40;99.90;;;;;;5056875;28;20127;-78
2022/04/15 07:43:52;;;;;;;12.15;6.35;;;9.40;99.90;;;;;;5072481;28;20123;-78
2022/04/15 07:46:18;;;;;;;24.25;16.15;;;9.70;99.90;;;;;;5074504;28;20066;-78
2022/04/15 07:48:43;;;;;;;18.63;12.38;;;9.60;99.90;;;;;;5039288;28;20055;-78
2022/04/15 07:51:09;;;;;;;23.38;15.82;;;9.60;99.90;;;;;;5073505;28;20041;-78
2022/04/15 07:53:35;;;;;;;27.35;16.10;;;9.50;99.90;;;;;;5072374;28;20052;-79
2022/04/15 07:56:01;;;;;;;29.38;17.25;;;9.50;99.90;;;;;;5055636;28;20045;-80
2022/04/15 07:58:27;;;;;;;25.70;16.27;;;9.20;99.90;;;;;;5073582;28;20044;-80
2022/04/15 08:00:53;;;;;;;24.08;16.48;;;9.10;99.90;;;;;;5071751;28;20102;-80
2022/04/15 08:03:20;;;;;;;22.23;14.45;;;9.20;99.90;;;;;;5072020;28;20048;-77
2022/04/15 08:05:49;;;;;;;24.65;15.20;;;9.30;99.90;;;;;;5072974;28;20040;-79
2022/04/15 08:08:14;;;;;;;22.80;13.05;;;9.50;99.90;;;;;;5071935;28;20128;-79
2022/04/15 08:10:40;;;;;;;22.55;12.57;;;10.20;99.90;;;;;;5072013;28;20131;-78
2022/04/15 08:13:06;;;;;;;19.02;11.45;;;9.70;99.90;;;;;;5056038;28;20041;-78
2022/04/15 08:15:31;;;;;;;16.23;10.10;;;9.80;99.90;;;;;;5073179;28;20083;-78
2022/04/15 08:17:57;;;;;;;20.52;12.23;;;9.80;99.90;;;;;;5055038;28;20132;-80
2022/04/15 08:20:23;;;;;;;18.40;10.95;;;9.80;99.90;;;;;;5073514;28;20043;-78
2022/04/15 08:22:48;;;;;;;19.45;10.32;;;9.90;99.90;;;;;;5072941;28;20450;-78
2022/04/15 08:25:14;;;;;;;15.80;9.18;;;9.90;99.90;;;;;;5071592;28;20053;-78
2022/04/15 08:27:40;;;;;;;11.93;6.97;;;9.60;99.90;;;;;;5072792;28;20392;-77
2022/04/15 08:30:06;;;;;;;10.95;6.63;;;9.80;99.90;;;;;;5072911;28;20052;-78
2022/04/15 08:32:35;;;;;;;10.68;6.35;;;10.20;99.90;;;;;;5071531;28;20045;-77
2022/04/15 08:35:04;;;;;;;10.38;6.93;;;10.10;99.90;;;;;;5071485;28;20044;-79
2022/04/15 08:37:30;;;;;;;14.20;7.30;;;9.90;99.90;;;;;;5038668;28;20049;-79
2022/04/15 08:39:57;;;;;;;11.65;6.65;;;10.00;99.90;;;;;;5072638;28;20049;-78
2022/04/15 08:42:23;;;;;;;7.05;4.78;;;10.40;99.90;;;;;;5072706;28;20186;-79
2022/04/15 08:44:53;;;;;;;9.27;6.22;;;10.60;99.90;;;;;;5070874;28;20419;-79
2022/04/15 08:47:18;;;;;;;10.05;5.80;;;10.60;99.90;;;;;;5071753;28;20036;-79
2022/04/15 08:49:45;;;;;;;11.20;5.72;;;10.50;99.90;;;;;;5072137;28;20037;-79
2022/04/15 08:52:11;;;;;;;7.70;5.57;;;10.30;99.90;;;;;;5070904;28;20051;-79
2022/04/15 08:54:37;;;;;;;6.18;4.47;;;10.60;99.90;;;;;;5054269;28;20093;-78
2022/04/15 08:57:03;;;;;;;7.60;4.35;;;10.70;99.90;;;;;;5071614;28;20384;-78
2022/04/15 08:59:29;;;;;;;10.98;6.03;;;10.80;99.90;;;;;;5071965;28;20051;-78
2022/04/15 09:01:55;;;;;;;12.32;6.70;;;10.60;99.90;;;;;;5070342;28;20546;-79
2022/04/15 09:04:21;;;;;;;10.15;6.28;;;10.70;99.90;;;;;;5072100;28;20086;-78
2022/04/15 09:06:54;;;;;;;10.32;6.03;;;10.90;99.90;;;;;;5071072;28;20052;-79
2022/04/15 09:09:19;;;;;;;10.32;6.45;;;11.10;99.90;;;;;;5070318;28;20055;-79
2022/04/15 09:11:48;;;;;;;7.85;6.03;;;11.50;99.90;;;;;;5071559;28;20127;-79
2022/04/15 09:14:14;;;;;;;9.90;5.20;;;11.60;99.90;;;;;;5070356;28;20040;-78
2022/04/15 09:16:41;;;;;;;10.98;7.15;;;11.60;99.90;;;;;;5054090;28;20117;-80
2022/04/15 09:19:07;;;;;;;9.07;5.78;;;11.70;99.90;;;;;;5054089;28;20059;-79
2022/04/15 09:21:33;;;;;;;11.73;6.55;;;11.50;99.90;;;;;;5037261;28;20071;-80
2022/04/15 09:23:59;;;;;;;12.10;7.70;;;11.40;99.90;;;;;;5052952;28;20066;-79
2022/04/15 09:26:25;;;;;;;8.55;6.03;;;11.40;99.90;;;;;;5071850;28;20044;-80
2022/04/15 09:28:52;;;;;;;9.80;6.57;;;11.40;99.90;;;;;;5053388;28;20056;-78
2022/04/15 09:31:18;;;;;;;10.15;6.43;;;11.80;99.90;;;;;;5054036;28;20063;-78
2022/04/15 09:33:51;;;;;;;11.55;6.22;;;11.80;99.90;;;;;;5069100;28;20059;-80
2022/04/15 09:36:38;;;;;;;9.88;6.05;;;11.80;99.90;;;;;;5071265;28;20048;-79
2022/04/15 09:39:16;;;;;;;8.05;5.13;;;12.00;99.90;;;;;;5057352;28;20302;-78
2022/04/15 09:41:50;;;;;;;11.80;5.95;;;12.00;99.90;;;;;;5055321;28;20049;-78
2022/04/15 09:44:16;;;;;;;10.75;6.85;;;11.80;99.90;;;;;;5070020;28;20040;-78
2022/04/15 09:46:45;;;;;;;11.27;6.65;;;11.20;99.90;;;;;;5053651;28;20094;-78
2022/04/15 09:49:11;;;;;;;10.15;6.55;;;11.50;99.90;;;;;;5069648;28;20480;-79
2022/04/15 09:51:46;;;;;;;9.63;6.32;;;11.80;99.90;;;;;;5054953;28;20048;-80
2022/04/15 09:54:26;;;;;;;7.68;5.00;;;11.90;99.90;;;;;;5066348;28;20101;-79
2022/04/15 09:56:53;;;;;;;8.65;6.35;;;12.00;99.90;;;;;;5081950;28;20106;-80
2022/04/15 09:59:23;;;;;;;10.68;6.85;;;12.00;99.90;;;;;;5038855;28;20050;-78
2022/04/15 10:01:57;;;;;;;8.52;6.57;;;11.80;99.90;;;;;;5068445;28;20052;-78
2022/04/15 10:04:24;;;;;;;9.35;5.68;;;11.80;99.90;;;;;;5053242;28;20044;-78
2022/04/15 10:06:50;;;;;;;9.38;7.43;;;12.10;99.90;;;;;;5068941;28;20071;-78
2022/04/15 10:09:15;;;;;;;7.78;5.93;;;12.30;99.90;;;;;;5053378;28;20455;-77
2022/04/15 10:11:42;;;;;;;11.00;7.28;;;12.10;99.90;;;;;;5070066;28;20044;-79
2022/04/15 10:14:09;;;;;;;10.32;7.30;;;12.20;99.90;;;;;;5052716;28;20554;-79
2022/04/15 10:16:35;;;;;;;7.75;5.50;;;12.30;99.90;;;;;;5049676;28;20048;-80
2022/04/15 10:19:01;;;;;;;9.95;4.43;;;12.20;99.90;;;;;;5049655;28;20094;-80
2022/04/15 10:21:31;;;;;;;13.23;7.13;;;12.20;99.90;;;;;;5050202;28;20044;-79
2022/04/15 10:23:57;;;;;;;12.40;7.57;;;12.00;99.90;;;;;;5050362;28;20100;-78
2022/04/15 10:26:23;;;;;;;12.40;8.48;;;11.90;99.90;;;;;;5066611;28;20099;-80
2022/04/15 10:28:49;;;;;;;12.23;6.95;;;11.50;99.90;;;;;;5051185;28;20045;-79
2022/04/15 10:31:16;;;;;;;11.57;7.82;;;12.50;99.90;;;;;;5049446;28;20052;-80
2022/04/15 10:33:43;;;;;;;10.68;6.93;;;11.50;99.90;;;;;;5049897;28;20556;-80
2022/04/15 10:36:22;;;;;;;9.68;6.80;;;11.50;99.90;;;;;;5066352;28;20053;-79
2022/04/15 10:39:18;;;;;;;7.25;5.75;;;11.80;99.90;;;;;;5049435;28;20088;-80
2022/04/15 10:41:53;;;;;;;8.98;6.88;;;12.00;99.90;;;;;;5050169;28;20073;-80
2022/04/15 10:44:39;;;;;;;12.25;8.40;;;12.10;99.90;;;;;;5050931;28;20045;-80
2022/04/15 10:47:09;;;;;;;7.20;5.72;;;11.90;99.90;;;;;;5050869;28;20467;-80
2022/04/15 10:49:35;;;;;;;10.80;6.63;;;12.10;99.90;;;;;;5066488;28;20539;-79
2022/04/15 10:52:18;;;;;;;10.93;7.93;;;11.90;99.90;;;;;;5065860;28;20088;-78
2022/04/15 10:54:48;;;;;;;10.82;6.55;;;11.60;99.90;;;;;;5065748;28;20089;-79
2022/04/15 10:57:18;;;;;;;11.70;8.00;;;11.70;99.90;;;;;;5054362;28;20098;-79
2022/04/15 11:02:38;;;;;;;14.32;8.38;;;11.40;99.90;;;;;;5055473;28;20057;-78
2022/04/15 11:05:05;;;;;;;12.25;8.45;;;11.60;99.90;;;;;;5068626;28;20045;-79
2022/04/15 11:07:42;;;;;;;13.10;8.20;;;11.70;99.90;;;;;;5033900;28;20501;-79
2022/04/15 11:10:19;;;;;;;11.30;8.27;;;11.70;99.90;;;;;;5067492;28;20523;-79
2022/04/15 11:12:45;;;;;;;15.80;8.57;;;11.40;99.90;;;;;;5067408;28;20107;-79
2022/04/15 11:15:11;;;;;;;11.52;7.65;;;11.60;99.90;;;;;;5051319;28;20041;-79
2022/04/15 11:17:41;;;;;;;11.60;7.93;;;11.70;99.90;;;;;;5069792;28;20052;-80
2022/04/15 11:20:07;;;;;;;13.57;7.65;;;11.60;99.90;;;;;;5052099;28;20056;-79
2022/04/15 11:22:40;;;;;;;10.27;7.75;;;11.60;99.90;;;;;;5051881;28;20102;-78
2022/04/15 11:25:09;;;;;;;13.50;8.80;;;11.50;99.90;;;;;;5051703;28;20053;-78
2022/04/15 11:27:39;;;;;;;11.18;8.50;;;11.30;99.90;;;;;;5076260;28;20052;-77
2022/04/15 11:30:14;;;;;;;11.30;8.30;;;11.20;99.90;;;;;;5051584;28;20056;-78
2022/04/15 11:32:47;;;;;;;14.68;7.35;;;11.70;99.90;;;;;;5067725;28;20040;-79
2022/04/15 11:35:28;;;;;;;10.18;7.53;;;11.80;99.90;;;;;;5067555;28;20423;-77
2022/04/15 11:38:03;;;;;;;11.43;8.35;;;11.60;99.90;;;;;;5067888;28;20395;-77
2022/04/15 11:40:30;;;;;;;11.70;8.40;;;11.50;99.90;;;;;;5067973;28;20036;-78
2022/04/15 11:42:58;;;;;;;14.00;7.15;;;11.30;99.90;;;;;;5067495;28;20075;-78
2022/04/15 11:45:33;;;;;;;7.32;5.10;;;11.20;99.90;;;;;;5071263;28;20040;-78
2022/04/15 11:48:16;;;;;;;8.07;5.78;;;11.40;99.90;;;;;;5069831;28;20055;-78
2022/04/15 11:50:42;;;;;;;9.32;6.35;;;11.30;99.90;;;;;;5070218;28;20128;-79
2022/04/15 11:53:08;;;;;;;11.00;6.22;;;11.40;99.90;;;;;;5070651;28;20128;-78
2022/04/15 11:55:46;;;;;;;12.55;8.32;;;11.20;99.90;;;;;;5071824;28;20051;-77
2022/04/15 11:58:12;;;;;;;11.32;7.05;;;11.30;99.90;;;;;;5068122;28;20550;-78
2022/04/15 12:00:38;;;;;;;11.50;8.00;;;11.40;99.90;;;;;;5071895;28;20044;-79
2022/04/15 12:03:05;;;;;;;10.80;7.78;;;11.40;99.90;;;;;;5070337;28;20050;-78
2022/04/15 12:05:30;;;;;;;8.77;7.28;;;11.20;99.90;;;;;;5054540;28;20473;-79
2022/04/15 12:07:56;;;;;;;8.55;6.70;;;11.30;99.90;;;;;;5072321;28;20102;-78
2022/04/15 12:10:22;;;;;;;5.63;4.82;;;11.50;99.90;;;;;;5070284;28;20138;-78
2022/04/15 12:12:49;;;;;;;10.32;7.05;;;11.70;99.90;;;;;;5072570;28;20085;-77
2022/04/15 12:15:15;;;;;;;7.32;6.32;;;11.60;99.90;;;;;;5080151;28;20036;-78
2022/04/15 12:17:41;;;;;;;10.50;6.90;;;11.40;99.90;;;;;;5084923;28;20405;-78
2022/04/15 12:20:07;;;;;;;7.30;5.93;;;11.40;99.90;;;;;;5080955;28;20477;-78
2022/04/15 12:22:32;;;;;;;9.07;6.40;;;11.10;99.90;;;;;;5059238;28;20052;-79
2022/04/15 12:25:17;;;;;;;9.45;6.38;;;11.30;99.90;;;;;;5067885;28;20512;-79
2022/04/15 12:27:45;;;;;;;10.57;6.20;;;11.30;99.90;;;;;;5067620;28;20056;-78
2022/04/15 12:30:16;;;;;;;7.55;4.72;;;11.30;99.90;;;;;;5067250;28;20045;-78
2022/04/15 12:32:43;;;;;;;7.45;6.03;;;11.50;99.90;;;;;;5051456;28;20037;-79
2022/04/15 12:35:13;;;;;;;8.82;6.72;;;11.40;99.90;;;;;;5066649;28;20049;-79
2022/04/15 12:37:59;;;;;;;6.25;5.15;;;11.40;99.90;;;;;;5050637;28;20051;-79
2022/04/15 12:40:29;;;;;;;12.38;8.00;;;11.40;99.90;;;;;;5050473;28;20060;-78
2022/04/15 12:42:55;;;;;;;9.60;7.03;;;11.10;99.90;;;;;;5050888;28;20052;-78
2022/04/15 12:45:22;;;;;;;9.88;7.53;;;11.30;99.90;;;;;;5069218;28;20067;-78
2022/04/15 12:48:01;;;;;;;11.45;7.15;;;11.20;99.90;;;;;;5069922;28;20048;-78